Time;durP1;ratioP1;P1;durP2;ratioP2;P2;SDS_P1;SDS_P2;PMS_P1;PMS_P2;Temp;Humidity;BMP_temperature;BMP_pressure;BME280_temperature;BME280_humidity;BME280_pressure;Samples;Min_cycle;Max_cycle;Signal;HPM_P1;HPM_P2
2022/01/05 00:01:37;;;;;;;9.53;2.30;;;;;;;12.03;100.00;102300.84;4947594;29;20478;-90
2022/01/05 00:04:12;;;;;;;18.20;7.43;;;;;;;11.88;100.00;102271.50;4956970;28;20435;-90
2022/01/05 00:15:28;;;;;;;;;;;;;;;;;;;;;
2022/01/05 00:19:05;;;;;;;;;;;;;;;;;;;;;
2022/01/05 00:22:30;;;;;;;16.97;2.93;;;;;;;11.98;100.00;102274.94;4907516;29;20517;-89
2022/01/05 00:25:14;;;;;;;17.27;1.80;;;;;;;11.97;100.00;102265.00;4915993;29;20846;-90
2022/01/05 00:27:59;;;;;;;7.53;1.27;;;;;;;12.07;100.00;102257.53;4898397;29;20455;-91
2022/01/05 00:30:29;;;;;;;7.63;1.70;;;;;;;12.13;100.00;102256.84;4940682;28;20797;-90
2022/01/05 00:33:12;;;;;;;9.13;1.30;;;;;;;12.04;100.00;102231.31;4915687;29;20430;-91
2022/01/05 00:35:40;;;;;;;10.87;1.53;;;;;;;12.17;100.00;102250.00;4900168;29;20441;-90
2022/01/05 00:38:10;;;;;;;8.90;1.30;;;;;;;12.19;100.00;102241.63;4900147;29;20484;-90
2022/01/05 00:40:37;;;;;;;11.80;2.30;;;;;;;12.17;99.15;102230.81;4884182;29;20482;-90
2022/01/05 00:43:07;;;;;;;8.30;1.50;;;;;;;12.18;98.55;102217.97;4884844;29;20449;-90
2022/01/05 00:45:36;;;;;;;8.93;1.50;;;;;;;12.18;98.84;102212.47;4885210;29;20449;-91
2022/01/05 00:48:05;;;;;;;7.83;1.97;;;;;;;12.27;98.17;102231.53;4884366;29;20448;-90
2022/01/05 00:50:33;;;;;;;12.40;1.23;;;;;;;12.33;98.45;102230.84;4922629;29;20452;-90
2022/01/05 00:53:03;;;;;;;5.10;0.97;;;;;;;12.31;98.55;102221.94;4971164;28;20976;-90
2022/01/05 00:55:30;;;;;;;11.83;1.77;;;;;;;12.36;99.02;102225.03;4999469;28;21012;-90
2022/01/05 00:57:58;;;;;;;9.70;1.20;;;;;;;12.35;99.09;102212.34;4995502;28;20444;-90
2022/01/05 01:00:26;;;;;;;4.40;1.77;;;;;;;12.47;99.45;102232.09;4979754;28;20441;-91
2022/01/05 01:02:55;;;;;;;4.27;1.30;;;;;;;12.37;99.57;102214.91;5008101;28;20827;-90
2022/01/05 01:05:24;;;;;;;8.90;1.83;;;;;;;12.42;99.09;102218.88;4995997;28;20843;-90
2022/01/05 01:07:53;;;;;;;6.87;1.17;;;;;;;12.39;99.39;102221.94;4985129;28;20475;-90
2022/01/05 01:10:23;;;;;;;6.73;1.03;;;;;;;12.28;99.19;102197.63;5021385;28;20436;-91
2022/01/05 01:13:08;;;;;;;10.10;1.30;;;;;;;12.28;98.57;102194.88;5044657;28;20959;-90
2022/01/05 01:15:46;;;;;;;7.23;1.30;;;;;;;12.28;98.10;102192.13;5023543;28;20465;-89
2022/01/05 01:18:15;;;;;;;12.80;1.43;;;;;;;12.25;98.41;102188.88;5023670;28;20453;-91
2022/01/05 01:20:45;;;;;;;9.50;1.30;;;;;;;12.25;98.42;102189.72;5023295;28;20963;-91
2022/01/05 01:23:14;;;;;;;6.57;1.70;;;;;;;12.23;98.58;102177.22;5023584;28;20442;-90
2022/01/05 01:25:42;;;;;;;7.93;1.80;;;;;;;12.27;98.52;102179.44;5055999;28;20442;-90
2022/01/05 01:28:10;;;;;;;6.83;0.90;;;;;;;12.25;99.19;102186.13;5027553;28;20438;-91
2022/01/05 01:30:44;;;;;;;8.10;1.97;;;;;;;12.23;99.01;102180.81;5033646;28;20470;-91
2022/01/05 01:33:15;;;;;;;8.87;1.50;;;;;;;12.16;99.13;102168.78;5058161;28;20437;-91
2022/01/05 01:35:45;;;;;;;4.50;1.20;;;;;;;12.17;99.91;102186.09;5039071;28;20450;-90
2022/01/05 01:38:17;;;;;;;10.10;2.23;;;;;;;12.11;100.00;102182.19;5056714;28;20438;-90
2022/01/05 01:40:45;;;;;;;11.47;1.37;;;;;;;12.19;100.00;102201.34;5041398;28;20478;-90
2022/01/05 01:43:13;;;;;;;7.20;1.50;;;;;;;12.15;100.00;102189.00;5036883;28;20448;-90
2022/01/05 01:45:47;;;;;;;8.90;1.30;;;;;;;12.24;100.00;102217.31;5063024;28;20444;-90
2022/01/05 01:48:15;;;;;;;7.03;1.70;;;;;;;12.13;100.00;102199.28;5046727;28;20479;-90
2022/01/05 01:50:42;;;;;;;7.17;1.60;;;;;;;12.16;100.00;102212.66;5062518;28;20803;-90
2022/01/05 01:53:11;;;;;;;6.60;2.07;;;;;;;12.15;100.00;102215.56;5078975;28;20469;-90
2022/01/05 01:55:40;;;;;;;15.93;2.47;;;;;;;12.06;100.00;102190.03;5046845;28;20440;-91
2022/01/05 01:58:10;;;;;;;11.20;2.10;;;;;;;12.12;100.00;102205.81;5056812;28;20460;-91
2022/01/05 02:00:38;;;;;;;11.97;2.10;;;;;;;12.06;100.00;102196.38;5043236;28;20856;-91
2022/01/05 02:03:06;;;;;;;12.53;1.33;;;;;;;12.09;100.00;102217.97;5031829;28;20967;-91
2022/01/05 02:05:37;;;;;;;11.83;1.60;;;;;;;11.98;100.00;102203.69;5057616;28;20779;-90
2022/01/05 02:08:06;;;;;;;6.40;1.67;;;;;;;12.02;100.00;102205.09;5043157;28;20923;-90
2022/01/05 02:10:33;;;;;;;11.57;1.37;;;;;;;11.97;100.00;102205.59;5041084;28;20458;-91
2022/01/05 02:13:01;;;;;;;15.27;2.30;;;;;;;12.02;100.00;102210.56;5027926;28;20495;-91
2022/01/05 02:15:29;;;;;;;8.97;1.50;;;;;;;11.91;100.00;102191.72;5043327;28;20460;-90
2022/01/05 02:20:33;;;;;;;6.13;1.30;;;;;;;11.94;100.00;102221.50;5060293;28;20484;-90
2022/01/05 02:23:01;;;;;;;9.90;1.90;;;;;;;11.93;100.00;102214.34;5026001;28;20494;-90
2022/01/05 02:25:30;;;;;;;4.20;1.43;;;;;;;11.87;100.00;102214.97;5025886;28;20445;-89
2022/01/05 02:27:58;;;;;;;11.10;1.73;;;;;;;11.81;100.00;102213.75;5042527;28;20943;-90
2022/01/05 02:30:27;;;;;;;19.93;1.77;;;;;;;11.82;100.00;102214.63;5042305;28;20782;-90
2022/01/05 02:32:56;;;;;;;9.87;2.23;;;;;;;11.84;100.00;102218.06;5060806;28;20499;-90
2022/01/05 02:35:25;;;;;;;7.10;1.30;;;;;;;11.84;100.00;102212.56;5045595;28;20545;-89
2022/01/05 02:37:56;;;;;;;10.00;2.10;;;;;;;11.84;100.00;102223.53;5058648;28;20917;-90
2022/01/05 02:40:25;;;;;;;10.30;1.70;;;;;;;11.95;99.60;102231.44;5056793;28;20435;-89
2022/01/05 02:42:56;;;;;;;8.60;1.83;;;;;;;11.83;99.16;102205.38;5057768;28;20903;-90
2022/01/05 02:45:25;;;;;;;7.27;1.47;;;;;;;11.88;98.71;102208.47;5049491;28;20813;-90
2022/01/05 02:47:56;;;;;;;8.13;1.63;;;;;;;11.96;98.52;102222.19;5058159;28;20434;-90
2022/01/05 02:50:24;;;;;;;11.83;1.70;;;;;;;11.87;98.65;102212.25;5042194;28;20442;-91
2022/01/05 02:52:52;;;;;;;5.33;1.57;;;;;;;11.93;98.99;102222.56;5046492;28;20478;-90
2022/01/05 02:55:19;;;;;;;4.80;1.50;;;;;;;11.83;98.88;102208.13;5042202;28;20454;-91
2022/01/05 02:57:48;;;;;;;17.00;2.80;;;;;;;11.84;99.11;102210.69;5053619;28;20858;-90
2022/01/05 03:00:17;;;;;;;6.10;1.30;;;;;;;11.74;99.52;102199.81;5059248;28;20442;-91
2022/01/05 03:02:45;;;;;;;6.43;1.33;;;;;;;11.73;99.74;102200.88;5056617;28;20850;-90
2022/01/05 03:05:13;;;;;;;14.63;2.00;;;;;;;11.76;100.00;102211.50;5062033;28;20449;-90
2022/01/05 03:07:42;;;;;;;13.83;2.30;;;;;;;11.80;100.00;102211.19;5057667;28;20530;-90
2022/01/05 03:10:10;;;;;;;11.10;1.83;;;;;;;11.77;100.00;102207.75;5072471;28;20439;-90
2022/01/05 03:12:46;;;;;;;10.13;2.90;;;;;;;11.76;100.00;102203.28;5052287;28;20446;-91
2022/01/05 03:15:17;;;;;;;12.33;2.23;;;;;;;11.82;100.00;102220.09;5042120;28;20441;-90
2022/01/05 03:17:46;;;;;;;9.10;2.00;;;;;;;11.80;100.00;102216.66;5057716;28;20442;-91
2022/01/05 03:20:24;;;;;;;10.57;1.63;;;;;;;11.84;100.00;102218.06;5041988;28;20500;-91
2022/01/05 03:22:53;;;;;;;8.13;1.77;;;;;;;11.72;100.00;102204.63;5070172;28;20869;-91
2022/01/05 03:25:22;;;;;;;9.40;2.33;;;;;;;11.66;100.00;102199.81;5060051;28;20451;-90
2022/01/05 03:27:53;;;;;;;13.80;3.37;;;;;;;11.52;100.00;102192.22;5077786;28;20524;-90
2022/01/05 03:30:26;;;;;;;14.20;2.17;;;;;;;11.45;100.00;102191.16;5061536;28;20452;-90
2022/01/05 03:35:28;;;;;;;8.90;1.57;;;;;;;11.47;100.00;102191.84;5058565;28;20848;-91
2022/01/05 03:37:57;;;;;;;9.97;1.80;;;;;;;11.49;100.00;102191.69;5073042;28;21012;-91
2022/01/05 03:40:30;;;;;;;11.83;1.97;;;;;;;11.53;100.00;102199.44;5062359;28;20445;-90
2022/01/05 03:43:02;;;;;;;9.73;1.70;;;;;;;11.43;100.00;102183.09;5057225;28;20466;-90
2022/01/05 03:45:52;;;;;;;12.67;3.10;;;;;;;11.37;100.00;102185.63;5057462;28;20854;-90
2022/01/05 03:48:26;;;;;;;19.73;5.27;;;;;;;11.36;100.00;102192.13;5042597;28;20537;-90
2022/01/05 03:50:54;;;;;;;35.60;10.30;;;;;;;11.23;100.00;102183.53;5040672;28;20478;-90
2022/01/05 03:53:22;;;;;;;13.97;4.07;;;;;;;11.19;100.00;102190.31;5072777;28;20484;-90
2022/01/05 03:55:50;;;;;;;9.63;3.10;;;;;;;11.10;100.00;102189.44;5050187;28;20444;-90
2022/01/05 03:58:20;;;;;;;9.60;4.30;;;;;;;11.08;100.00;102195.06;5055938;28;20485;-89
2022/01/05 04:00:51;;;;;;;15.60;2.87;;;;;;;11.07;100.00;102198.81;5047935;28;20438;-90
2022/01/05 04:03:28;;;;;;;7.00;1.97;;;;;;;11.00;100.00;102195.00;5041488;28;20492;-90
2022/01/05 04:05:56;;;;;;;28.10;7.10;;;;;;;11.00;100.00;102211.41;5057071;28;20442;-90
2022/01/05 04:08:27;;;;;;;23.97;9.00;;;;;;;10.99;100.00;102206.97;5056531;28;20485;-90
2022/01/05 04:10:56;;;;;;;25.10;7.43;;;;;;;10.97;100.00;102219.09;5049679;28;20846;-90
2022/01/05 04:13:26;;;;;;;9.93;2.80;;;;;;;10.76;100.00;102200.31;5045505;28;20832;-90
2022/01/05 04:15:57;;;;;;;9.13;2.20;;;;;;;10.78;100.00;102225.59;5040222;28;20827;-90
2022/01/05 04:18:31;;;;;;;9.90;1.70;;;;;;;10.63;100.00;102208.94;5042281;28;20453;-90
2022/01/05 04:21:03;;;;;;;7.10;1.83;;;;;;;10.53;100.00;102204.56;5040621;28;20966;-91
2022/01/05 04:23:30;;;;;;;12.07;2.63;;;;;;;10.48;100.00;102206.91;5056626;28;20535;-90
2022/01/05 04:25:59;;;;;;;10.57;2.00;;;;;;;10.51;100.00;102225.75;5040295;28;21003;-90
2022/01/05 04:28:27;;;;;;;5.40;1.90;;;;;;;10.42;100.00;102223.94;5044344;28;20468;-90
2022/01/05 04:30:55;;;;;;;7.70;2.30;;;;;;;10.31;100.00;102212.22;5040256;28;20456;-90
2022/01/05 04:33:23;;;;;;;7.20;1.80;;;;;;;10.30;100.00;102226.91;5073260;28;20480;-90
2022/01/05 04:36:11;;;;;;;4.17;1.53;;;;;;;10.26;100.00;102238.31;5058920;28;20440;-90
2022/01/05 04:38:38;;;;;;;9.53;2.20;;;;;;;10.08;100.00;102234.66;5040275;28;20544;-90
2022/01/05 04:41:08;;;;;;;5.83;1.60;;;;;;;10.02;100.00;102250.63;5040276;28;21421;-90
2022/01/05 04:43:36;;;;;;;11.03;1.47;;;;;;;9.91;100.00;102239.09;5039750;28;20626;-89
2022/01/05 04:46:04;;;;;;;3.67;1.50;;;;;;;9.95;100.00;102259.63;5041196;28;20445;-90
2022/01/05 04:48:32;;;;;;;9.50;1.10;;;;;;;9.94;100.00;102257.91;5056498;28;20450;-90
2022/01/05 04:51:01;;;;;;;6.43;1.60;;;;;;;9.83;100.00;102250.75;5056091;28;20442;-90
2022/01/05 04:53:29;;;;;;;3.57;1.13;;;;;;;9.79;100.00;102254.81;5055686;28;20481;-89
2022/01/05 04:56:00;;;;;;;7.63;2.03;;;;;;;9.85;100.00;102256.06;5072263;28;20954;-90
2022/01/05 04:58:31;;;;;;;11.20;2.67;;;;;;;9.85;100.00;102272.44;5040219;28;20542;-90
2022/01/05 05:01:02;;;;;;;8.33;0.93;;;;;;;9.64;100.00;102245.41;5040532;28;20445;-90
2022/01/05 05:03:33;;;;;;;11.00;1.50;;;;;;;9.59;100.00;102258.66;5040247;28;20473;-90
2022/01/05 05:06:04;;;;;;;5.53;1.30;;;;;;;9.64;100.00;102273.56;5039920;28;20456;-90
2022/01/05 05:08:43;;;;;;;11.47;1.97;;;;;;;9.55;100.00;102257.22;5056746;28;20508;-90
2022/01/05 05:11:11;;;;;;;13.13;1.87;;;;;;;9.54;100.00;102267.28;5040258;28;20453;-90
2022/01/05 05:13:40;;;;;;;8.40;2.37;;;;;;;9.57;100.00;102272.44;5050458;28;20947;-89
2022/01/05 05:16:12;;;;;;;8.10;1.53;;;;;;;9.55;100.00;102276.34;5043444;28;20859;-90
2022/01/05 05:18:40;;;;;;;3.40;1.33;;;;;;;9.44;100.00;102269.19;5043713;28;20478;-90
2022/01/05 05:21:12;;;;;;;8.87;1.20;;;;;;;9.41;100.00;102261.31;5043261;28;20506;-90
2022/01/05 05:23:52;;;;;;;6.83;1.30;;;;;;;9.41;100.00;102268.63;5045316;28;20473;-90
2022/01/05 05:26:23;;;;;;;5.80;1.43;;;;;;;9.30;100.00;102258.75;5051429;28;20471;-89
2022/01/05 05:28:55;;;;;;;9.90;1.67;;;;;;;9.35;100.00;102278.28;5045228;28;20477;-90
2022/01/05 05:31:36;;;;;;;5.47;1.60;;;;;;;9.34;100.00;102274.69;5044655;28;20446;-91
2022/01/05 05:34:10;;;;;;;9.87;2.30;;;;;;;9.27;100.00;102264.50;5044283;28;20446;-91
2022/01/05 05:36:41;;;;;;;11.40;2.60;;;;;;;9.28;100.00;102263.50;5063068;28;20491;-91
2022/01/05 05:39:12;;;;;;;6.23;1.97;;;;;;;9.16;100.00;102256.50;5059651;28;20435;-91
2022/01/05 05:41:47;;;;;;;6.03;1.33;;;;;;;9.17;100.00;102266.41;5060451;28;20442;-90
2022/01/05 05:44:15;;;;;;;16.33;2.00;;;;;;;9.20;100.00;102266.97;5042965;28;20453;-85
2022/01/05 05:46:44;;;;;;;9.03;1.60;;;;;;;9.14;100.00;102261.25;5062322;28;20441;-91
2022/01/05 05:49:18;;;;;;;10.30;1.73;;;;;;;9.11;100.00;102277.88;5059746;28;20932;-90
2022/01/05 05:51:45;;;;;;;8.20;1.70;;;;;;;9.11;100.00;102275.16;5050628;28;20480;-90
2022/01/05 05:54:13;;;;;;;6.83;1.40;;;;;;;8.95;100.00;102260.28;5039956;28;20907;-91
2022/01/05 05:56:41;;;;;;;12.83;1.60;;;;;;;8.96;100.00;102267.44;5062483;28;20942;-91
2022/01/05 05:59:09;;;;;;;5.77;1.33;;;;;;;8.97;100.00;102280.06;5047005;28;20448;-91
2022/01/05 06:01:37;;;;;;;7.03;1.33;;;;;;;8.94;100.00;102295.88;5042679;28;20449;-90
2022/01/05 06:04:07;;;;;;;4.20;1.13;;;;;;;8.85;100.00;102294.03;5033889;28;20484;-90
2022/01/05 06:06:39;;;;;;;2.47;1.40;;;;;;;8.87;100.00;102303.75;5062970;28;20860;-90
2022/01/05 06:09:07;;;;;;;5.57;1.37;;;;;;;8.83;100.00;102310.53;5063550;28;20536;-90
2022/01/05 06:11:36;;;;;;;8.87;1.77;;;;;;;8.73;100.00;102293.28;5061914;28;20443;-91
2022/01/05 06:14:04;;;;;;;4.83;1.40;;;;;;;8.75;100.00;102295.88;5045265;28;20442;-90
2022/01/05 06:16:33;;;;;;;6.00;2.00;;;;;;;8.78;100.00;102307.34;5062916;28;20437;-90
2022/01/05 06:19:02;;;;;;;6.67;1.27;;;;;;;8.84;100.00;102311.38;5046232;28;20456;-90
2022/01/05 06:21:30;;;;;;;7.67;1.27;;;;;;;8.82;100.00;102297.88;5062425;28;20924;-91
2022/01/05 06:23:57;;;;;;;9.60;1.77;;;;;;;8.81;100.00;102301.63;5045487;28;20599;-91
2022/01/05 06:26:25;;;;;;;7.63;1.50;;;;;;;8.73;100.00;102296.00;5041211;28;20457;-90
2022/01/05 06:28:52;;;;;;;6.83;1.30;;;;;;;8.76;100.00;102320.25;5042217;28;20561;-91
2022/01/05 06:31:20;;;;;;;6.93;1.37;;;;;;;8.66;100.00;102303.03;5025768;28;20966;-91
2022/01/05 06:33:50;;;;;;;2.83;1.10;;;;;;;8.63;100.00;102308.78;5025924;28;20963;-90
2022/01/05 06:36:21;;;;;;;8.70;1.97;;;;;;;8.52;100.00;102290.69;5035797;28;20434;-91
2022/01/05 06:38:50;;;;;;;4.37;1.70;;;;;;;8.60;100.00;102309.94;5043164;28;20445;-90
2022/01/05 06:41:24;;;;;;;9.40;1.53;;;;;;;8.49;100.00;102290.13;5043782;28;20450;-90
2022/01/05 06:43:51;;;;;;;11.73;1.40;;;;;;;8.51;100.00;102288.13;5033621;28;20478;-91
2022/01/05 06:46:19;;;;;;;6.40;1.60;;;;;;;8.58;100.00;102305.63;5042702;28;20442;-91
2022/01/05 06:48:50;;;;;;;3.27;1.30;;;;;;;8.60;100.00;102303.63;5033023;28;20536;-90
2022/01/05 06:51:18;;;;;;;6.00;1.27;;;;;;;8.60;100.00;102309.94;5058376;28;20446;-91
2022/01/05 06:53:49;;;;;;;4.67;1.43;;;;;;;8.58;100.00;102324.69;5052232;28;20469;-91
2022/01/05 06:56:21;;;;;;;9.97;1.20;;;;;;;8.47;100.00;102305.75;5078922;28;20494;-91
2022/01/05 06:58:48;;;;;;;3.83;1.10;;;;;;;8.52;100.00;102311.63;5045585;28;20442;-91
2022/01/05 07:01:17;;;;;;;2.83;0.97;;;;;;;8.44;100.00;102306.06;5045668;28;20453;-90
2022/01/05 07:03:46;;;;;;;4.33;1.40;;;;;;;8.50;100.00;102313.63;5077456;28;20552;-90
2022/01/05 07:06:15;;;;;;;7.33;1.10;;;;;;;8.40;100.00;102307.34;5056683;28;20506;-91
2022/01/05 07:08:45;;;;;;;8.73;1.40;;;;;;;8.34;100.00;102302.44;5045484;28;20445;-91
2022/01/05 07:11:16;;;;;;;14.50;1.93;;;;;;;8.39;100.00;102328.25;5093661;28;20438;-91
2022/01/05 07:13:45;;;;;;;8.70;1.57;;;;;;;8.25;100.00;102310.44;5045259;28;20810;-90
2022/01/05 07:16:13;;;;;;;3.50;1.33;;;;;;;8.21;100.00;102319.88;5046526;28;20441;-91
2022/01/05 07:18:42;;;;;;;7.23;1.20;;;;;;;8.18;100.00;102314.72;5045396;28;20866;-91
2022/01/05 07:21:10;;;;;;;14.00;1.77;;;;;;;8.03;100.00;102294.31;5045460;28;20446;-91
2022/01/05 07:23:40;;;;;;;9.03;1.57;;;;;;;8.14;100.00;102328.72;5044885;28;20477;-91
2022/01/05 07:26:08;;;;;;;4.80;1.37;;;;;;;8.11;100.00;102324.44;5045270;28;20479;-91
2022/01/05 07:28:36;;;;;;;8.03;1.30;;;;;;;8.05;100.00;102322.28;5050721;28;20452;-91
2022/01/05 07:31:06;;;;;;;13.17;1.57;;;;;;;8.12;100.00;102342.50;5044884;28;20503;-91
2022/01/05 07:33:40;;;;;;;6.93;1.97;;;;;;;8.00;100.00;102319.09;5051434;28;20480;-91
2022/01/05 07:36:08;;;;;;;5.80;1.23;;;;;;;8.09;100.00;102337.31;5052219;28;20954;-90
2022/01/05 07:38:35;;;;;;;4.73;1.33;;;;;;;8.12;100.00;102337.03;5063445;28;20488;-91
2022/01/05 07:41:05;;;;;;;6.67;1.40;;;;;;;8.06;100.00;102332.19;5044629;28;20446;-90
2022/01/05 07:43:38;;;;;;;5.77;1.33;;;;;;;8.12;100.00;102333.47;5060895;28;20473;-91
2022/01/05 07:46:11;;;;;;;6.10;1.20;;;;;;;8.13;100.00;102330.59;5045278;28;20445;-91
2022/01/05 07:48:50;;;;;;;6.90;1.67;;;;;;;8.13;100.00;102327.88;5068388;28;20441;-91
2022/01/05 07:51:25;;;;;;;10.27;2.40;;;;;;;8.12;100.00;102331.59;5062636;28;20449;-92
2022/01/05 07:57:59;;;;;;;4.43;1.13;;;;;;;8.03;100.00;102324.28;5076322;28;20441;-91
2022/01/05 08:00:38;;;;;;;4.97;1.23;;;;;;;7.96;100.00;102314.94;5053679;28;20445;-90
2022/01/05 08:03:12;;;;;;;4.90;1.10;;;;;;;8.04;100.00;102328.72;5058722;28;20484;-91
2022/01/05 08:05:41;;;;;;;10.17;1.80;;;;;;;7.90;100.00;102310.88;5053722;28;20442;-91
2022/01/05 08:08:09;;;;;;;12.00;1.87;;;;;;;7.95;100.00;102324.09;5040490;28;20509;-91
2022/01/05 08:11:22;;;;;;;8.30;1.60;;;;;;;7.86;100.00;102311.31;5040849;28;21175;-91
2022/01/05 08:14:10;;;;;;;4.77;1.10;;;;;;;7.90;100.00;102310.03;5033980;28;20448;-91
2022/01/05 08:16:43;;;;;;;6.77;1.50;;;;;;;7.90;100.00;102310.03;5044515;28;21061;-91
2022/01/05 08:19:12;;;;;;;4.57;1.30;;;;;;;7.91;100.00;102311.75;5031215;28;20449;-91
2022/01/05 08:21:44;;;;;;;4.60;1.50;;;;;;;7.90;100.00;102299.13;5041738;28;20442;-91
2022/01/05 08:24:34;;;;;;;5.20;1.70;;;;;;;8.10;100.00;102319.97;5034789;28;20477;-91
2022/01/05 08:27:24;;;;;;;5.33;1.43;;;;;;;8.12;100.00;102323.44;5058882;28;20450;-92
2022/01/05 08:29:52;;;;;;;9.53;1.80;;;;;;;8.17;100.00;102340.22;5076872;28;20497;-91
2022/01/05 08:32:33;;;;;;;7.33;1.10;;;;;;;8.13;100.00;102322.44;5063976;28;20440;-92
2022/01/05 08:35:12;;;;;;;5.00;1.57;;;;;;;8.22;100.00;102324.34;5025951;28;20537;-92
2022/01/05 08:37:46;;;;;;;16.77;2.43;;;;;;;8.25;100.00;102312.31;5055872;28;20474;-92
2022/01/05 08:40:39;;;;;;;9.47;3.67;;;;;;;8.46;100.00;102343.06;5059017;28;20539;-92
2022/01/05 08:43:47;;;;;;;13.07;5.00;;;;;;;8.43;100.00;102323.41;5061126;28;20462;-85
2022/01/05 08:46:46;;;;;;;14.60;4.00;;;;;;;8.47;100.00;102330.25;5059168;28;20789;-90
2022/01/05 09:22:20;;;;;;;8.20;2.30;;;;;;;10.03;100.00;102358.88;4979512;28;20498;-92
2022/01/05 09:24:59;;;;;;;7.60;2.87;;;;;;;10.17;100.00;102373.09;4963857;28;20483;-92
2022/01/05 09:27:28;;;;;;;17.37;3.50;;;;;;;10.20;100.00;102365.44;4949786;28;20446;-93
2022/01/05 09:29:59;;;;;;;14.33;3.33;;;;;;;10.32;100.00;102367.00;5027010;28;20447;-94
2022/01/05 09:32:34;;;;;;;12.47;3.13;;;;;;;10.36;100.00;102352.00;5078951;28;20440;-93
2022/01/05 09:35:20;;;;;;;12.93;2.50;;;;;;;10.66;100.00;102374.53;5082613;28;20445;-92
2022/01/05 12:50:15;;;;;;;2.77;0.50;;;;;;;16.40;94.50;102221.59;5073084;28;20441;-89
2022/01/05 12:52:46;;;;;;;6.73;1.00;;;;;;;16.33;94.11;102234.47;5041014;28;20853;-90
2022/01/05 12:55:22;;;;;;;1.80;0.40;;;;;;;16.15;93.27;102220.28;5060031;28;20451;-90
2022/01/05 12:57:54;;;;;;;2.60;0.90;;;;;;;16.12;93.89;102221.50;5093642;28;20544;-87
2022/01/05 13:00:22;;;;;;;1.97;0.50;;;;;;;16.21;94.13;102216.72;5049446;28;20437;-88
2022/01/05 13:02:58;;;;;;;3.67;0.67;;;;;;;16.21;94.40;102211.19;5057662;28;20464;-90
2022/01/05 13:05:30;;;;;;;7.13;0.50;;;;;;;16.22;94.08;102204.63;5040658;28;20480;-89
2022/01/05 13:08:00;;;;;;;3.40;1.07;;;;;;;16.40;93.86;102213.31;5056494;28;20466;-88
2022/01/05 13:10:28;;;;;;;7.60;1.10;;;;;;;16.54;92.75;102206.03;5074840;28;20433;-87
2022/01/05 13:13:08;;;;;;;6.30;1.90;;;;;;;16.53;90.56;102196.06;5074692;28;20436;-91
2022/01/05 13:15:36;;;;;;;2.70;1.17;;;;;;;16.58;91.26;102188.88;5041739;28;20441;-86
2022/01/05 13:18:03;;;;;;;4.77;0.70;;;;;;;16.71;90.75;102195.63;5093009;28;20429;-85
2022/01/05 13:20:31;;;;;;;3.77;0.70;;;;;;;16.79;90.32;102195.47;5074863;28;20447;-85
2022/01/05 13:23:09;;;;;;;5.60;0.80;;;;;;;16.91;90.46;102194.72;5077672;28;20440;-86
2022/01/05 13:25:39;;;;;;;3.73;0.90;;;;;;;17.02;90.36;102186.94;5085338;28;20470;-87
2022/01/05 13:28:08;;;;;;;1.30;0.40;;;;;;;16.97;89.03;102176.47;5042817;28;20438;-87
2022/01/05 13:30:36;;;;;;;3.00;0.80;;;;;;;16.78;88.88;102167.00;5073379;28;20896;-85
2022/01/05 13:33:29;;;;;;;7.00;0.83;;;;;;;16.57;89.84;102162.31;5071317;28;20448;-87
2022/01/05 13:52:09;;;;;;;1.87;0.60;;;;;;;16.11;94.51;102159.13;5092408;28;20971;-87
2022/01/05 13:54:41;;;;;;;1.17;0.40;;;;;;;15.92;96.46;102120.28;5090271;28;20931;-86
2022/01/05 13:57:29;;;;;;;2.77;0.50;;;;;;;15.98;96.41;102128.63;5030395;28;20500;-87
2022/01/05 14:00:03;;;;;;;2.27;0.60;;;;;;;15.95;96.51;102130.94;5091175;28;20441;-86
2022/01/05 14:02:34;;;;;;;4.53;0.50;;;;;;;15.97;96.64;102120.56;5061395;28;20432;-87
2022/01/05 14:05:02;;;;;;;2.20;0.67;;;;;;;15.92;95.50;102118.38;5078391;28;20485;-87
2022/01/05 14:07:30;;;;;;;2.20;0.33;;;;;;;15.89;95.04;102116.00;5061688;28;20441;-86
2022/01/05 14:10:15;;;;;;;4.40;1.07;;;;;;;15.94;93.49;102123.72;5039584;28;20443;-87
2022/01/05 14:12:50;;;;;;;2.50;0.50;;;;;;;15.87;94.09;102107.94;5026180;28;20444;-86
2022/01/05 14:15:18;;;;;;;3.63;0.80;;;;;;;15.86;94.31;102108.97;5026562;28;20430;-86
2022/01/05 14:18:10;;;;;;;1.93;0.50;;;;;;;15.93;92.00;102108.22;5045084;28;20441;-87
2022/01/05 14:20:48;;;;;;;8.33;0.97;;;;;;;15.89;92.74;102100.31;5055350;28;20528;-87
2022/01/05 14:23:19;;;;;;;2.90;0.43;;;;;;;15.90;92.72;102106.69;5043452;28;20471;-86
2022/01/05 14:25:49;;;;;;;4.20;1.00;;;;;;;15.89;92.45;102110.50;5028179;28;21002;-86
2022/01/05 14:28:19;;;;;;;3.43;0.53;;;;;;;15.91;92.16;102096.53;5041681;28;20442;-87
2022/01/05 14:30:55;;;;;;;4.30;0.60;;;;;;;16.07;92.52;102082.47;5058499;28;20822;-86
2022/01/05 14:33:39;;;;;;;5.43;0.70;;;;;;;16.30;90.56;102082.25;5059008;28;20441;-86
2022/01/05 14:36:19;;;;;;;3.73;0.80;;;;;;;16.48;91.33;102101.94;5058250;28;20434;-87
2022/01/05 14:38:57;;;;;;;2.90;0.60;;;;;;;16.47;91.25;102101.09;5042363;28;20438;-87
2022/01/05 14:41:32;;;;;;;5.50;1.03;;;;;;;16.23;92.61;102107.03;5057930;28;20469;-87
2022/01/05 14:44:39;;;;;;;3.53;0.77;;;;;;;16.08;94.65;102097.97;5057668;28;20465;-86
2022/01/05 14:47:28;;;;;;;4.07;0.90;;;;;;;15.99;96.29;102099.13;5045716;28;20438;-87
2022/01/05 14:49:59;;;;;;;4.03;0.80;;;;;;;15.92;96.51;102090.81;5026012;28;20459;-87
2022/01/05 14:52:30;;;;;;;6.63;1.10;;;;;;;15.89;96.38;102083.78;5041679;28;20442;-87
2022/01/05 14:54:59;;;;;;;2.00;0.50;;;;;;;15.89;95.49;102074.66;5042503;28;21253;-86
2022/01/05 14:57:28;;;;;;;6.07;0.93;;;;;;;15.81;95.58;102067.34;5055771;28;20849;-86
2022/01/05 14:59:56;;;;;;;5.10;0.70;;;;;;;15.66;95.11;102069.31;5075040;28;20839;-86
2022/01/05 15:02:23;;;;;;;2.60;0.70;;;;;;;15.58;95.86;102069.44;5041127;28;20434;-86
2022/01/05 15:04:52;;;;;;;4.60;0.63;;;;;;;15.55;95.88;102080.81;5024801;28;20473;-86
2022/01/05 16:30:08;;;;;;;6.17;0.90;;;;;;;15.29;91.17;102039.16;5073982;28;20966;-89
2022/01/05 16:32:43;;;;;;;8.63;1.23;;;;;;;15.12;93.12;102039.38;5025340;28;20449;-89
2022/01/05 16:35:34;;;;;;;3.70;1.20;;;;;;;14.98;94.63;102043.03;5058721;28;20469;-89
2022/01/05 16:38:28;;;;;;;16.20;2.23;;;;;;;14.84;96.29;102052.97;5046759;28;20426;-89
2022/01/05 16:41:15;;;;;;;6.90;1.67;;;;;;;14.74;97.50;102032.28;5043742;28;20874;-88
2022/01/05 16:51:04;;;;;;;8.90;1.30;;;;;;;14.40;99.21;102016.31;5073681;28;20495;-89
2022/01/05 16:53:51;;;;;;;4.50;0.90;;;;;;;14.41;99.50;102018.91;5045695;28;20445;-88
2022/01/05 16:56:26;;;;;;;9.03;1.60;;;;;;;14.34;99.56;102004.16;5042730;28;20437;-88
2022/01/05 17:01:40;;;;;;;13.03;2.83;;;;;;;14.35;99.97;102011.34;5058059;28;20457;-88
2022/01/05 17:04:08;;;;;;;17.90;2.10;;;;;;;14.25;99.98;101991.50;5038571;28;20583;-88
2022/01/05 17:06:37;;;;;;;4.63;1.70;;;;;;;14.21;100.00;101998.44;5093589;28;21010;-88
2022/01/05 17:09:07;;;;;;;4.90;1.50;;;;;;;14.25;100.00;102010.75;5044062;28;20487;-88
2022/01/05 17:15:37;;;;;;;7.53;1.50;;;;;;;14.17;100.00;101997.09;5093337;28;20429;-88
2022/01/05 17:18:22;;;;;;;6.07;1.00;;;;;;;14.17;100.00;102002.59;5045949;28;20520;-88
2022/01/05 17:21:04;;;;;;;6.53;1.33;;;;;;;14.01;100.00;101986.28;5046594;28;20437;-89
2022/01/05 17:39:23;;;;;;;9.70;1.93;;;;;;;13.91;100.00;101986.50;5093276;28;20474;-88
2022/01/05 17:41:50;;;;;;;8.20;1.93;;;;;;;14.01;100.00;101989.03;5059107;28;20426;-87
2022/01/05 17:44:22;;;;;;;6.20;1.30;;;;;;;13.93;100.00;101978.94;5059507;28;20899;-91
2022/01/05 17:46:59;;;;;;;4.63;1.10;;;;;;;14.04;100.00;101991.41;5042864;28;20445;-91
2022/01/05 17:49:54;;;;;;;10.93;1.60;;;;;;;14.03;100.00;101995.19;5046761;28;20441;-88
2022/01/05 17:52:35;;;;;;;20.20;2.57;;;;;;;14.05;100.00;101982.09;5061250;28;21225;-87
2022/01/05 17:55:18;;;;;;;;;;;;;;;;;;;;;
2022/01/05 17:58:27;;;;;;;;;;;;;;;;;;;;;
2022/01/05 18:00:59;;;;;;;16.17;1.40;;;;;;;14.13;100.00;101990.25;5057677;28;20437;-87
2022/01/05 18:03:37;;;;;;;11.30;1.67;;;;;;;14.13;100.00;101987.50;5074609;28;20433;-87
2022/01/05 18:06:08;;;;;;;5.60;2.47;;;;;;;14.06;100.00;101981.03;5043615;28;20472;-88